createdAt,value
2018-05-04T00:02:24.808Z,102171.36
2018-05-04T00:05:28.109Z,102177.30
2018-05-04T00:08:31.424Z,102176.88
2018-05-04T00:11:34.729Z,102180.21
2018-05-04T00:14:38.066Z,102170.98
2018-05-04T00:17:42.134Z,102174.62
2018-05-04T00:20:45.457Z,102169.70
2018-05-04T00:23:48.757Z,102178.63
2018-05-04T00:26:52.085Z,102182.66
2018-05-04T00:29:55.385Z,102190.52
2018-05-04T00:32:58.726Z,102185.57
2018-05-04T00:36:02.035Z,102190.62
2018-05-04T00:39:05.364Z,102192.34
2018-05-04T00:42:09.433Z,102193.13
2018-05-04T00:45:12.773Z,102193.52
2018-05-04T00:48:16.851Z,102198.39
2018-05-04T00:51:20.186Z,102189.92
2018-05-04T00:54:24.258Z,102201.51
2018-05-04T00:57:27.600Z,102192.45
2018-05-04T01:00:30.942Z,102197.00
2018-05-04T01:03:34.270Z,102201.02
2018-05-04T01:06:37.582Z,102200.47
2018-05-04T01:09:41.657Z,102203.42
2018-05-04T01:12:44.957Z,102208.80
2018-05-04T01:15:48.285Z,102210.58
2018-05-04T01:18:52.366Z,102220.19
2018-05-04T01:21:55.697Z,102214.25
2018-05-04T01:24:59.761Z,102216.77
2018-05-04T01:28:03.097Z,102226.08
2018-05-04T01:31:06.393Z,102227.67
2018-05-04T01:34:09.726Z,102234.68
2018-05-04T01:37:13.034Z,102235.17
2018-05-04T01:40:16.357Z,102235.44
2018-05-04T01:43:19.667Z,102238.25
2018-05-04T01:46:22.996Z,102246.68
2018-05-04T01:49:27.065Z,102251.27
2018-05-04T01:52:30.385Z,102245.81
2018-05-04T01:55:35.610Z,102241.86
2018-05-04T01:58:38.950Z,102235.41
2018-05-04T02:01:43.025Z,102236.23
2018-05-04T02:04:46.335Z,102246.23
2018-05-04T02:07:49.723Z,102246.52
2018-05-04T02:10:53.748Z,102247.30
2018-05-04T02:13:57.057Z,102251.94
2018-05-04T02:17:00.390Z,102238.75
2018-05-04T02:20:03.690Z,102244.44
2018-05-04T02:23:07.030Z,102251.06
2018-05-04T02:26:10.342Z,102260.33
2018-05-04T02:29:14.960Z,102260.77
2018-05-04T02:32:18.262Z,102262.20
2018-05-04T02:35:21.598Z,102265.80
2018-05-04T02:38:24.906Z,102259.91
2018-05-04T02:41:28.259Z,102268.06
2018-05-04T02:44:31.573Z,102274.79
2018-05-04T02:47:34.885Z,102282.72
2018-05-04T02:50:38.229Z,102283.30
2018-05-04T02:53:41.529Z,102292.73
2018-05-04T02:56:44.859Z,102295.19
2018-05-04T02:59:48.149Z,102301.15
2018-05-04T03:02:51.522Z,102299.95
2018-05-04T03:05:54.788Z,102297.91
2018-05-04T03:08:58.109Z,102305.50
2018-05-04T03:12:01.415Z,102302.19
2018-05-04T03:15:04.740Z,102305.16
2018-05-04T03:18:08.058Z,102302.04
2018-05-04T03:21:11.381Z,102306.98
2018-05-04T03:24:15.514Z,102307.27
2018-05-04T03:27:18.900Z,102308.70
2018-05-04T03:30:22.197Z,102309.34
2018-05-04T03:33:25.517Z,102312.33
2018-05-04T03:36:29.585Z,102313.67
2018-05-04T03:39:32.947Z,102314.31
2018-05-04T03:42:36.294Z,102321.17
2018-05-04T03:45:39.605Z,102316.58
2018-05-04T03:48:42.945Z,102321.33
2018-05-04T03:51:46.272Z,102308.95
2018-05-04T03:54:49.591Z,102310.95
2018-05-04T03:58:10.334Z,102313.98
2018-05-04T04:01:31.139Z,102319.02
2018-05-04T04:04:34.463Z,102321.85
2018-05-04T04:07:37.774Z,102323.68
2018-05-04T04:10:41.110Z,102321.13
2018-05-04T04:13:44.434Z,102319.98
2018-05-04T04:16:47.795Z,102322.05
2018-05-04T04:19:51.115Z,102332.08
2018-05-04T04:22:54.433Z,102341.49
2018-05-04T04:25:57.766Z,102334.77
2018-05-04T04:29:01.075Z,102338.36
2018-05-04T04:32:04.418Z,102342.44
2018-05-04T04:35:07.727Z,102353.61
2018-05-04T04:38:11.368Z,102353.31
2018-05-04T04:41:14.702Z,102357.47
2018-05-04T04:44:18.042Z,102349.23
2018-05-04T04:47:21.362Z,102348.50
2018-05-04T04:50:24.704Z,102348.41
2018-05-04T04:53:28.027Z,102359.06
2018-05-04T04:56:31.351Z,102356.39
2018-05-04T04:59:34.674Z,102356.44
2018-05-04T05:02:38.014Z,102349.92
2018-05-04T05:05:41.314Z,102347.86
2018-05-04T05:08:44.641Z,102354.66
2018-05-04T05:11:47.967Z,102352.59
2018-05-04T05:14:52.062Z,102351.73
2018-05-04T05:17:55.361Z,102348.55
2018-05-04T05:20:59.473Z,102353.05
2018-05-04T05:24:02.801Z,102363.09
2018-05-04T05:27:06.141Z,102358.91
2018-05-04T05:30:09.446Z,102355.44
2018-05-04T05:33:12.781Z,102359.33
2018-05-04T05:36:16.103Z,102353.64
2018-05-04T05:39:19.451Z,102353.77
2018-05-04T05:42:22.862Z,102352.28
2018-05-04T05:45:26.145Z,102350.78
2018-05-04T05:48:29.457Z,102360.77
2018-05-04T05:51:33.538Z,102351.82
2018-05-04T05:54:36.923Z,102356.02
2018-05-04T05:57:40.199Z,102360.00
2018-05-04T06:00:43.514Z,102363.16
2018-05-04T06:03:46.832Z,102361.67
2018-05-04T06:06:50.144Z,102371.50
2018-05-04T06:09:53.457Z,102372.70
2018-05-04T06:12:57.581Z,102369.86
2018-05-04T06:16:00.910Z,102381.38
2018-05-04T06:19:04.249Z,102374.45
2018-05-04T06:22:07.549Z,102372.16
2018-05-04T06:25:10.967Z,102372.88
2018-05-04T06:28:14.189Z,102369.13
2018-05-04T06:31:17.518Z,102367.08
2018-05-04T06:34:21.837Z,102371.73
2018-05-04T06:37:25.166Z,102371.20
2018-05-04T06:40:29.237Z,102376.00
2018-05-04T06:43:32.557Z,102373.67
2018-05-04T06:46:35.853Z,102383.78
2018-05-04T06:49:39.186Z,102388.88
2018-05-04T06:52:42.492Z,102382.34
2018-05-04T06:55:45.807Z,102372.13
2018-05-04T06:58:49.104Z,102377.48
2018-05-04T07:01:52.416Z,102375.27
2018-05-04T07:04:55.717Z,102373.81
2018-05-04T07:07:59.046Z,102377.52
2018-05-04T07:11:03.125Z,102382.59
2018-05-04T07:14:06.452Z,102384.20
2018-05-04T07:17:09.748Z,102388.63
2018-05-04T07:20:13.060Z,102381.80
2018-05-04T07:23:17.138Z,102382.15
2018-05-04T07:26:20.473Z,102383.47
2018-05-04T07:29:23.774Z,102390.14
2018-05-04T07:32:27.085Z,102394.05
2018-05-04T07:35:30.400Z,102388.77
2018-05-04T07:38:33.698Z,102392.76
2018-05-04T07:41:37.023Z,102409.09
2018-05-04T07:44:40.341Z,102395.36
2018-05-04T07:47:44.432Z,102392.13
2018-05-04T07:50:47.737Z,102389.19
2018-05-04T07:53:51.065Z,102389.43
2018-05-04T07:56:54.382Z,102390.66
2018-05-04T07:59:57.711Z,102389.39
2018-05-04T08:03:01.046Z,102393.67
2018-05-04T08:06:04.357Z,102401.88
2018-05-04T08:09:07.665Z,102404.53
2018-05-04T08:12:11.005Z,102398.27
2018-05-04T08:15:14.318Z,102395.69
2018-05-04T08:18:17.649Z,102398.95
2018-05-04T08:21:20.965Z,102400.05
2018-05-04T08:24:24.295Z,102413.17
2018-05-04T08:27:27.640Z,102423.02
2018-05-04T08:30:30.961Z,102422.35
2018-05-04T08:33:34.287Z,102419.85
2018-05-04T08:36:37.634Z,102415.00
2018-05-04T08:39:40.950Z,102421.84
2018-05-04T08:42:44.308Z,102427.13
2018-05-04T08:45:47.623Z,102428.27
2018-05-04T08:48:50.953Z,102428.03
2018-05-04T08:51:54.274Z,102420.22
2018-05-04T08:54:58.374Z,102425.82
2018-05-04T08:58:01.701Z,102412.86
2018-05-04T09:01:05.806Z,102413.96
2018-05-04T09:04:09.920Z,102420.60
2018-05-04T09:07:14.022Z,102420.31
2018-05-04T09:10:17.336Z,102420.34
2018-05-04T09:13:21.427Z,102423.20
2018-05-04T09:16:24.783Z,102425.09
2018-05-04T09:19:28.105Z,102420.45
2018-05-04T09:22:31.458Z,102429.06
2018-05-04T09:25:34.777Z,102421.69
2018-05-04T09:28:38.097Z,102426.53
2018-05-04T09:31:41.409Z,102427.98
2018-05-04T09:34:44.740Z,102415.63
2018-05-04T09:37:48.817Z,102424.44
2018-05-04T09:40:52.171Z,102426.09
2018-05-04T09:43:55.491Z,102425.48
2018-05-04T09:46:58.821Z,102426.93
2018-05-04T09:50:02.130Z,102426.91
2018-05-04T09:53:06.223Z,102428.61
2018-05-04T09:56:09.620Z,102433.52
2018-05-04T09:59:13.658Z,102437.55
2018-05-04T10:02:17.729Z,102437.53
2018-05-04T10:05:21.063Z,102436.38
2018-05-04T10:08:25.938Z,102437.77
2018-05-04T10:11:29.258Z,102438.81
2018-05-04T10:14:32.582Z,102442.28
2018-05-04T10:17:35.886Z,102441.83
2018-05-04T10:20:39.989Z,102448.25
2018-05-04T10:23:43.317Z,102445.94
2018-05-04T10:26:46.660Z,102444.67
2018-05-04T10:29:49.972Z,102433.75
2018-05-04T10:32:53.350Z,102432.29
2018-05-04T10:35:56.656Z,102433.45
2018-05-04T10:39:00.085Z,102428.20
2018-05-04T10:42:03.289Z,102425.55
2018-05-04T10:45:07.467Z,102427.13
2018-05-04T10:48:11.472Z,102422.30
2018-05-04T10:51:14.818Z,102431.02
2018-05-04T10:54:18.896Z,102433.44
2018-05-04T10:57:22.213Z,102429.97
2018-05-04T11:00:26.192Z,102424.70
2018-05-04T11:03:29.525Z,102419.11
2018-05-04T11:06:32.829Z,102421.85
2018-05-04T11:09:36.910Z,102419.09
2018-05-04T11:12:40.209Z,102422.22
2018-05-04T11:15:43.526Z,102421.41
2018-05-04T11:18:46.826Z,102426.97
2018-05-04T11:21:50.921Z,102428.64
2018-05-04T11:24:54.225Z,102425.09
2018-05-04T11:27:57.636Z,102430.27
2018-05-04T11:31:00.932Z,102425.83
2018-05-04T11:34:04.254Z,102425.59
2018-05-04T11:37:07.561Z,102424.39
2018-05-04T11:40:10.893Z,102425.47
2018-05-04T11:43:14.198Z,102434.83
2018-05-04T11:46:17.525Z,102437.05
2018-05-04T11:49:22.571Z,102433.59
2018-05-04T11:52:26.975Z,102428.97
2018-05-04T11:55:31.069Z,102424.43
2018-05-04T11:58:34.402Z,102428.32
2018-05-04T12:01:37.816Z,102437.28
2018-05-04T12:04:41.186Z,102429.72
2018-05-04T12:07:45.274Z,102436.54
2018-05-04T12:10:48.668Z,102435.08
2018-05-04T12:13:51.955Z,102435.56
2018-05-04T12:16:55.301Z,102438.17
2018-05-04T12:19:59.398Z,102434.70
2018-05-04T12:23:02.718Z,102442.32
2018-05-04T12:26:06.022Z,102448.38
2018-05-04T12:29:09.445Z,102436.84
2018-05-04T12:32:12.752Z,102445.23
2018-05-04T12:35:16.076Z,102444.05
2018-05-04T12:38:19.379Z,102447.66
2018-05-04T12:41:23.466Z,102451.19
2018-05-04T12:44:26.766Z,102457.75
2018-05-04T12:47:30.077Z,102456.66
2018-05-04T12:50:33.372Z,102454.94
2018-05-04T12:53:36.784Z,102453.89
2018-05-04T12:56:40.031Z,102455.56
2018-05-04T12:59:44.104Z,102454.73
2018-05-04T13:02:48.193Z,102447.94
2018-05-04T13:05:51.493Z,102450.12
2018-05-04T13:08:54.806Z,102449.09
2018-05-04T13:11:58.878Z,102445.52
2018-05-04T13:15:02.198Z,102440.88
2018-05-04T13:18:05.506Z,102440.05
2018-05-04T13:21:08.834Z,102445.44
2018-05-04T13:24:12.145Z,102448.72
2018-05-04T13:27:15.482Z,102444.38
2018-05-04T13:30:18.785Z,102441.21
2018-05-04T13:33:22.127Z,102445.52
2018-05-04T13:36:25.427Z,102444.25
2018-05-04T13:39:28.757Z,102443.25
2018-05-04T13:42:32.056Z,102441.49
2018-05-04T13:45:35.394Z,102442.73
2018-05-04T13:48:39.874Z,102442.29
2018-05-04T13:51:42.797Z,102440.53
2018-05-04T13:54:46.880Z,102437.80
2018-05-04T13:57:50.278Z,102442.26
2018-05-04T14:00:53.525Z,102437.82
2018-05-04T14:03:56.882Z,102431.29
2018-05-04T14:07:00.182Z,102431.73
2018-05-04T14:10:03.538Z,102433.35
2018-05-04T14:13:06.852Z,102421.78
2018-05-04T14:16:10.219Z,102420.13
2018-05-04T14:19:13.549Z,102424.00
2018-05-04T14:22:16.868Z,102424.70
2018-05-04T14:25:20.203Z,102428.69
2018-05-04T14:28:23.513Z,102422.70
2018-05-04T14:31:26.886Z,102420.41
2018-05-04T14:34:30.962Z,102419.20
2018-05-04T14:37:34.303Z,102416.46
2018-05-04T14:40:37.641Z,102410.70
2018-05-04T14:43:40.954Z,102414.34
2018-05-04T14:46:44.287Z,102413.23
2018-05-04T14:49:47.600Z,102411.60
2018-05-04T14:52:50.917Z,102418.93
2018-05-04T14:55:54.254Z,102419.13
2018-05-04T14:58:57.553Z,102424.49
2018-05-04T15:02:00.896Z,102415.33
2018-05-04T15:05:04.202Z,102418.38
2018-05-04T15:08:07.543Z,102417.49
2018-05-04T15:11:11.622Z,102422.79
2018-05-04T15:14:14.977Z,102424.03
2018-05-04T15:17:18.361Z,102419.11
2018-05-04T15:20:21.619Z,102427.73
2018-05-04T15:23:24.921Z,102429.48
2018-05-04T15:26:28.258Z,102434.29
2018-05-04T15:29:32.338Z,102429.93
2018-05-04T15:32:35.667Z,102432.21
2018-05-04T15:35:39.729Z,102435.89
2018-05-04T15:38:43.058Z,102432.73
2018-05-04T15:41:46.360Z,102431.64
2018-05-04T15:44:49.679Z,102429.30
2018-05-04T15:47:52.996Z,102423.65
2018-05-04T15:51:01.910Z,102429.00
2018-05-04T15:54:05.213Z,102427.34
2018-05-04T15:57:08.530Z,102426.92
2018-05-04T16:00:11.852Z,102425.41
2018-05-04T16:03:15.161Z,102417.82
2018-05-04T16:06:18.468Z,102430.13
2018-05-04T16:09:21.766Z,102429.02
2018-05-04T16:12:25.896Z,102427.88
2018-05-04T16:15:29.965Z,102429.61
2018-05-04T16:18:33.300Z,102426.98
2018-05-04T16:21:37.383Z,102427.06
2018-05-04T16:24:40.704Z,102429.21
2018-05-04T16:27:44.009Z,102429.05
2018-05-04T16:30:47.343Z,102426.55
2018-05-04T16:33:50.645Z,102422.75
2018-05-04T16:36:53.946Z,102423.28
2018-05-04T16:39:57.249Z,102425.55
2018-05-04T16:43:00.593Z,102424.92
2018-05-04T16:46:04.661Z,102433.16
2018-05-04T16:52:41.577Z,102434.80
2018-05-04T16:55:44.917Z,102441.27
2018-05-04T16:58:48.226Z,102441.64
2018-05-04T17:01:51.651Z,102440.87
2018-05-04T17:04:54.957Z,102440.91
2018-05-04T17:07:58.268Z,102436.75
2018-05-04T17:11:01.577Z,102441.19
2018-05-04T17:14:05.677Z,102433.41
2018-05-04T17:17:08.981Z,102437.81
2018-05-04T17:20:12.297Z,102447.67
2018-05-04T17:23:16.373Z,102443.87
2018-05-04T17:26:19.704Z,102446.33
2018-05-04T17:29:23.774Z,102449.94
2018-05-04T17:32:27.125Z,102450.16
2018-05-04T17:35:30.430Z,102453.44
2018-05-04T17:38:33.757Z,102464.84
2018-05-04T17:41:37.052Z,102460.75
2018-05-04T17:44:40.369Z,102465.81
2018-05-04T17:47:43.668Z,102470.58
2018-05-04T17:50:46.999Z,102465.44
2018-05-04T17:53:51.077Z,102466.30
2018-05-04T17:56:54.403Z,102461.84
2018-05-04T17:59:58.521Z,102469.66
2018-05-04T18:03:02.666Z,102477.56
2018-05-04T18:06:05.951Z,102482.93
2018-05-04T18:09:09.260Z,102485.95
2018-05-04T18:12:12.634Z,102484.17
2018-05-04T18:15:16.709Z,102486.45
2018-05-04T18:18:20.024Z,102491.48
2018-05-04T18:21:24.098Z,102493.83
2018-05-04T18:24:27.424Z,102487.82
2018-05-04T18:27:30.724Z,102489.48
2018-05-04T18:30:34.056Z,102494.28
2018-05-04T18:33:37.360Z,102492.89
2018-05-04T18:36:40.672Z,102500.64
2018-05-04T18:39:43.993Z,102511.66
2018-05-04T18:42:47.301Z,102524.83
2018-05-04T18:45:50.733Z,102523.72
2018-05-04T18:48:54.805Z,102533.23
2018-05-04T18:51:58.134Z,102538.41
2018-05-04T18:55:02.202Z,102535.52
2018-05-04T18:58:05.537Z,102542.41
2018-05-04T19:01:09.604Z,102546.67
2018-05-04T19:04:12.917Z,102550.59
2018-05-04T19:07:16.985Z,102558.09
2018-05-04T19:10:20.314Z,102559.36
2018-05-04T19:13:23.617Z,102564.67
2018-05-04T19:16:26.937Z,102571.93
2018-05-04T19:19:30.239Z,102575.72
2018-05-04T19:22:33.554Z,102578.05
2018-05-04T19:25:37.617Z,102574.08
2018-05-04T19:28:40.938Z,102578.80
2018-05-04T19:31:44.241Z,102593.95
2018-05-04T19:34:47.580Z,102583.82
2018-05-04T19:37:50.888Z,102588.45
2018-05-04T19:40:54.218Z,102593.93
2018-05-04T19:43:57.525Z,102589.75
2018-05-04T19:47:00.878Z,102598.27
2018-05-04T19:50:04.200Z,102602.70
2018-05-04T19:53:08.383Z,102613.92
2018-05-04T19:56:11.689Z,102615.73
2018-05-04T19:59:15.005Z,102609.52
2018-05-04T20:02:18.310Z,102618.32
2018-05-04T20:05:21.625Z,102617.90
2018-05-04T20:08:24.949Z,102625.53
2018-05-04T20:11:29.017Z,102619.98
2018-05-04T20:14:32.352Z,102620.88
2018-05-04T20:17:36.424Z,102629.37
2018-05-04T20:20:39.750Z,102631.90
2018-05-04T20:23:43.059Z,102630.30
2018-05-04T20:26:46.405Z,102625.73
2018-05-04T20:29:49.704Z,102629.01
2018-05-04T20:32:53.033Z,102628.58
2018-05-04T20:35:56.343Z,102631.61
2018-05-04T20:39:00.424Z,102632.91
2018-05-04T20:42:03.718Z,102626.84
2018-05-04T20:45:07.037Z,102631.78
2018-05-04T20:48:10.434Z,102631.77
2018-05-04T20:51:13.758Z,102632.06
2018-05-04T20:54:17.053Z,102628.37
2018-05-04T20:57:21.128Z,102617.72
2018-05-04T21:00:24.425Z,102614.62
2018-05-04T21:03:27.743Z,102620.92
2018-05-04T21:06:31.802Z,102631.38
2018-05-04T21:09:35.122Z,102636.25
2018-05-04T21:12:38.450Z,102640.80
2018-05-04T21:15:42.532Z,102638.77
2018-05-04T21:18:45.838Z,102639.23
2018-05-04T21:21:49.152Z,102644.09
2018-05-04T21:24:52.449Z,102646.20
2018-05-04T21:27:55.754Z,102649.75
2018-05-04T21:30:59.813Z,102650.68
2018-05-04T21:34:03.137Z,102658.80
2018-05-04T21:37:06.438Z,102657.44
2018-05-04T21:40:09.746Z,102659.77
2018-05-04T21:43:13.042Z,102667.91
2018-05-04T21:46:16.362Z,102662.76
2018-05-04T21:49:20.430Z,102668.98
2018-05-04T21:52:23.740Z,102668.72
2018-05-04T21:55:27.037Z,102661.86
2018-05-04T21:58:30.366Z,102662.64
2018-05-04T22:01:33.667Z,102673.43
2018-05-04T22:04:37.003Z,102664.63
2018-05-04T22:07:40.317Z,102668.34
2018-05-04T22:10:43.613Z,102663.17
2018-05-04T22:13:46.924Z,102667.02
2018-05-04T22:16:50.216Z,102666.33
2018-05-04T22:19:53.533Z,102660.41
2018-05-04T22:22:57.594Z,102668.65
2018-05-04T22:26:01.685Z,102671.38
2018-05-04T22:29:04.977Z,102673.00
2018-05-04T22:32:08.285Z,102677.75
2018-05-04T22:35:11.578Z,102670.21
2018-05-04T22:38:14.901Z,102670.40
2018-05-04T22:41:18.206Z,102673.86
2018-05-04T22:44:22.302Z,102672.60
2018-05-04T22:47:25.601Z,102670.80
2018-05-04T22:50:28.924Z,102673.17
2018-05-04T22:53:32.217Z,102681.05
2018-05-04T22:56:35.625Z,102681.47
2018-05-04T22:59:38.861Z,102681.72
2018-05-04T23:02:42.174Z,102688.73
2018-05-04T23:05:45.464Z,102687.45
2018-05-04T23:08:48.768Z,102686.75
2018-05-04T23:11:52.069Z,102692.84
2018-05-04T23:14:55.369Z,102701.50
2018-05-04T23:17:58.681Z,102706.98
2018-05-04T23:21:02.018Z,102702.98
2018-05-04T23:24:05.317Z,102699.19
2018-05-04T23:27:09.373Z,102701.30
2018-05-04T23:30:12.696Z,102702.13
2018-05-04T23:33:15.984Z,102703.22
2018-05-04T23:36:19.309Z,102707.87
2018-05-04T23:39:23.360Z,102704.47
2018-05-04T23:42:26.673Z,102709.09
2018-05-04T23:45:29.964Z,102710.28
2018-05-04T23:48:33.279Z,102697.89
2018-05-04T23:51:36.568Z,102698.65
2018-05-04T23:54:39.880Z,102697.19
2018-05-04T23:57:43.172Z,102703.00
